Time;durP1;ratioP1;P1;durP2;ratioP2;P2;SDS_P1;SDS_P2;PMS_P1;PMS_P2;Temp;Humidity;BMP_temperature;BMP_pressure;BME280_temperature;BME280_humidity;BME280_pressure;Samples;Min_cycle;Max_cycle;Signal;HPM_P1;HPM_P2
2023/06/11 00:01:51;;;;;;;3.13;2.50;;;;;;;22.51;70.33;100047.53;5052201;28;20446;-47
2023/06/11 00:04:25;;;;;;;3.70;3.40;;;;;;;22.41;70.50;100039.31;5052273;28;20940;-48
2023/06/11 00:06:56;;;;;;;7.63;4.60;;;;;;;22.36;70.57;100035.25;5051966;28;20499;-48
2023/06/11 00:09:23;;;;;;;5.30;3.57;;;;;;;22.35;70.71;100053.34;5051980;28;20475;-48
2023/06/11 00:11:50;;;;;;;3.37;3.10;;;;;;;22.28;71.31;100043.13;5051817;28;20569;-48
2023/06/11 00:14:16;;;;;;;2.50;2.30;;;;;;;22.17;71.91;100044.84;5052182;28;20451;-48
2023/06/11 00:16:43;;;;;;;3.63;3.43;;;;;;;22.25;71.61;100051.50;5052046;28;20450;-48
2023/06/11 00:19:11;;;;;;;5.00;4.60;;;;;;;22.11;71.97;100039.94;5052008;28;20516;-48
2023/06/11 00:21:43;;;;;;;4.13;3.20;;;;;;;22.13;72.09;100054.22;5051748;28;20447;-48
2023/06/11 00:24:11;;;;;;;4.43;4.20;;;;;;;22.19;71.85;100052.84;5051798;28;20442;-48
2023/06/11 00:26:38;;;;;;;2.77;2.53;;;;;;;22.18;71.89;100049.28;5051713;28;20932;-48
2023/06/11 00:29:05;;;;;;;2.50;2.40;;;;;;;22.25;71.75;100052.38;5051966;28;20453;-50
2023/06/11 00:31:32;;;;;;;3.00;2.80;;;;;;;22.14;72.05;100052.38;5052635;28;20540;-51
2023/06/11 00:34:01;;;;;;;4.87;4.57;;;;;;;22.07;72.46;100051.16;5053069;28;20471;-48
2023/06/11 00:36:29;;;;;;;3.90;3.70;;;;;;;21.98;72.88;100057.25;5051777;28;20967;-48
2023/06/11 00:38:56;;;;;;;4.40;4.20;;;;;;;21.98;72.75;100060.84;5052023;28;20451;-48
2023/06/11 00:41:24;;;;;;;3.57;3.27;;;;;;;22.04;72.67;100054.06;5051791;28;20447;-48
2023/06/11 00:43:54;;;;;;;14.87;4.50;;;;;;;21.89;73.49;100062.41;5052102;28;21145;-49
2023/06/11 00:46:21;;;;;;;3.87;3.67;;;;;;;21.91;73.60;100056.88;5038721;28;20475;-49
2023/06/11 00:48:50;;;;;;;4.77;3.73;;;;;;;21.91;73.65;100058.72;5052380;28;20466;-50
2023/06/11 00:51:26;;;;;;;3.47;3.17;;;;;;;21.86;73.94;100064.50;5055541;28;20811;-49
2023/06/11 00:53:53;;;;;;;3.30;3.10;;;;;;;21.82;74.05;100063.91;5055470;28;20462;-49
2023/06/11 00:56:20;;;;;;;3.33;3.13;;;;;;;21.80;74.51;100057.75;5055585;28;20857;-49
2023/06/11 00:58:48;;;;;;;5.53;3.97;;;;;;;21.76;74.84;100060.78;5055352;28;20450;-50
2023/06/11 01:01:25;;;;;;;3.03;2.83;;;;;;;21.65;75.32;100058.94;5055340;28;20818;-50
2023/06/11 01:03:56;;;;;;;4.10;3.90;;;;;;;21.64;75.26;100061.75;5055503;28;20540;-49
2023/06/11 01:06:28;;;;;;;13.00;3.33;;;;;;;21.71;75.25;100063.88;5055464;28;20446;-50
2023/06/11 01:08:57;;;;;;;3.23;3.10;;;;;;;21.62;75.64;100064.59;5055441;28;20447;-49
2023/06/11 01:11:24;;;;;;;4.87;3.90;;;;;;;21.52;76.15;100063.59;5055167;28;20442;-50
2023/06/11 01:13:54;;;;;;;3.70;3.50;;;;;;;21.39;76.74;100063.69;5055126;28;20477;-50
2023/06/11 01:16:37;;;;;;;10.27;3.93;;;;;;;21.42;77.03;100060.72;5054895;28;20461;-50
2023/06/11 01:19:34;;;;;;;3.17;2.97;;;;;;;21.38;77.26;100069.19;5055001;28;20443;-49
2023/06/11 01:22:05;;;;;;;6.33;4.50;;;;;;;21.32;77.53;100058.84;5054804;28;20975;-50
2023/06/11 01:24:51;;;;;;;5.90;3.93;;;;;;;21.17;78.41;100066.25;5055278;28;20441;-49
2023/06/11 01:27:40;;;;;;;4.77;3.63;;;;;;;21.20;78.39;100068.72;5055047;28;20509;-49
2023/06/11 01:30:09;;;;;;;13.63;3.37;;;;;;;21.28;78.06;100061.78;5054960;28;20501;-49
2023/06/11 01:32:36;;;;;;;3.97;3.70;;;;;;;21.08;78.78;100062.41;5054449;28;20846;-50
2023/06/11 01:35:03;;;;;;;4.57;4.17;;;;;;;21.24;78.43;100063.00;5054918;28;20470;-50
2023/06/11 01:37:32;;;;;;;5.40;3.40;;;;;;;21.11;78.77;100061.34;5054556;28;20504;-50
2023/06/11 01:39:59;;;;;;;4.70;4.40;;;;;;;20.99;79.20;100061.28;5054785;28;20442;-50
2023/06/11 01:42:26;;;;;;;3.60;3.40;;;;;;;21.04;79.27;100065.47;5054430;28;20892;-50
2023/06/11 01:44:52;;;;;;;4.80;3.30;;;;;;;20.95;79.88;100065.16;5054530;28;20473;-49
2023/06/11 01:47:18;;;;;;;3.20;3.00;;;;;;;20.87;80.22;100064.91;5054219;28;20464;-49
2023/06/11 01:49:45;;;;;;;8.63;4.00;;;;;;;20.90;80.35;100064.66;5054633;28;20447;-50
2023/06/11 01:52:11;;;;;;;7.70;3.87;;;;;;;20.79;80.94;100069.13;5054287;28;20494;-50
2023/06/11 01:54:38;;;;;;;3.47;3.17;;;;;;;20.82;80.72;100068.91;5054646;28;20450;-50
2023/06/11 01:57:04;;;;;;;3.67;3.33;;;;;;;20.99;80.28;100071.22;5054675;28;20454;-50
2023/06/11 01:59:31;;;;;;;3.13;2.97;;;;;;;21.17;79.20;100066.25;5054161;28;20470;-50
2023/06/11 02:01:57;;;;;;;6.10;3.20;;;;;;;20.96;79.90;100072.28;5053565;28;20463;-50
2023/06/11 02:04:24;;;;;;;10.47;4.57;;;;;;;21.03;79.97;100070.00;5054446;28;20451;-50
2023/06/11 02:06:50;;;;;;;4.53;4.20;;;;;;;20.81;80.67;100076.16;5054162;28;20446;-50
2023/06/11 02:09:17;;;;;;;3.93;3.67;;;;;;;20.77;81.14;100079.19;5054493;28;20520;-49
2023/06/11 02:11:43;;;;;;;4.37;4.13;;;;;;;20.72;81.60;100073.28;5053765;28;20479;-49
2023/06/11 02:14:10;;;;;;;4.10;3.10;;;;;;;20.80;81.05;100077.13;5053961;28;20846;-50
2023/06/11 02:16:36;;;;;;;4.50;4.10;;;;;;;20.83;81.08;100076.94;5054006;28;20490;-50
2023/06/11 02:19:03;;;;;;;4.67;3.47;;;;;;;20.84;80.81;100084.06;5054163;28;20453;-50
2023/06/11 02:21:30;;;;;;;3.17;2.90;;;;;;;20.56;81.94;100087.94;5053949;28;20486;-50
2023/06/11 02:23:56;;;;;;;4.43;4.03;;;;;;;20.54;82.43;100089.00;5053911;28;20463;-50
2023/06/11 02:26:23;;;;;;;3.63;3.33;;;;;;;20.72;81.93;100087.66;5050364;28;20447;-49
2023/06/11 02:28:49;;;;;;;4.40;4.07;;;;;;;20.83;81.08;100087.72;5053598;28;20451;-50
2023/06/11 02:31:16;;;;;;;5.13;4.37;;;;;;;20.88;80.94;100093.66;5053793;28;20489;-49
2023/06/11 02:33:43;;;;;;;3.30;3.10;;;;;;;20.92;80.93;100096.97;5053673;28;20870;-49
2023/06/11 02:36:10;;;;;;;7.57;4.50;;;;;;;20.91;80.75;100096.13;5053663;28;20446;-50
2023/06/11 02:38:36;;;;;;;3.83;3.53;;;;;;;20.97;80.42;100103.78;5053467;28;20951;-50
2023/06/11 02:41:03;;;;;;;5.07;4.60;;;;;;;20.90;79.97;100099.78;5053234;28;20956;-50
2023/06/11 02:43:29;;;;;;;4.30;4.10;;;;;;;20.80;80.39;100095.19;5053179;28;20548;-50
2023/06/11 02:45:56;;;;;;;3.83;3.53;;;;;;;20.39;82.39;100102.59;5053469;28;20453;-50
2023/06/11 02:48:22;;;;;;;6.20;5.20;;;;;;;20.21;83.03;100098.53;5053504;28;20821;-50
2023/06/11 02:50:48;;;;;;;4.90;4.60;;;;;;;20.14;83.82;100094.53;5053158;28;20950;-49
2023/06/11 02:53:15;;;;;;;3.80;3.50;;;;;;;20.11;83.95;100103.72;5053284;28;20501;-50
2023/06/11 02:55:41;;;;;;;3.63;3.33;;;;;;;20.08;84.20;100108.47;5053088;28;20447;-50
2023/06/11 02:58:08;;;;;;;6.70;4.27;;;;;;;20.02;84.40;100104.38;5053038;28;20801;-50
2023/06/11 03:00:34;;;;;;;4.33;4.13;;;;;;;20.04;84.96;100101.56;5052778;28;20470;-50
2023/06/11 03:03:01;;;;;;;3.23;3.03;;;;;;;20.08;84.74;100109.34;5049268;28;20474;-50
2023/06/11 03:05:27;;;;;;;6.77;4.37;;;;;;;20.02;85.12;100107.09;5053011;28;20729;-50
2023/06/11 03:07:54;;;;;;;3.90;3.43;;;;;;;19.68;86.50;100105.00;5053082;28;20844;-49
2023/06/11 03:10:21;;;;;;;4.73;4.40;;;;;;;19.56;86.79;100104.00;5052815;28;20970;-50
2023/06/11 03:12:47;;;;;;;5.13;4.73;;;;;;;19.64;86.38;100112.44;5034002;28;20492;-50
2023/06/11 03:15:13;;;;;;;4.57;3.93;;;;;;;19.62;86.56;100116.22;5053139;28;20478;-49
2023/06/11 03:17:40;;;;;;;6.00;4.37;;;;;;;19.45;87.54;100114.63;5052929;28;20454;-49
2023/06/11 03:20:08;;;;;;;5.40;5.00;;;;;;;19.28;87.33;100110.38;5053016;28;20454;-50
2023/06/11 03:22:34;;;;;;;4.80;4.37;;;;;;;19.27;87.80;100111.34;5052637;28;20532;-49
2023/06/11 03:25:01;;;;;;;3.73;3.53;;;;;;;19.12;87.79;100109.69;5052372;28;20446;-50
2023/06/11 03:27:27;;;;;;;4.43;4.23;;;;;;;18.94;88.35;100112.66;5052521;28;20458;-49
2023/06/11 03:29:53;;;;;;;3.77;3.43;;;;;;;18.98;88.71;100105.22;5052850;28;20451;-50
2023/06/11 03:32:20;;;;;;;4.60;4.30;;;;;;;18.87;89.21;100114.00;5052551;28;20526;-49
2023/06/11 03:34:47;;;;;;;6.00;5.60;;;;;;;18.77;90.13;100112.00;5052340;28;20816;-49
2023/06/11 03:37:13;;;;;;;4.63;4.30;;;;;;;18.83;90.37;100117.00;5052597;28;20450;-50
2023/06/11 03:39:39;;;;;;;6.53;4.60;;;;;;;18.81;89.98;100114.41;5052529;28;20465;-50
2023/06/11 03:42:06;;;;;;;3.73;3.53;;;;;;;18.72;90.70;100119.53;5052139;28;20487;-50
2023/06/11 03:44:33;;;;;;;4.67;3.73;;;;;;;18.87;89.71;100122.09;5052478;28;20449;-50
2023/06/11 03:46:59;;;;;;;3.80;3.50;;;;;;;18.93;89.76;100120.84;5052454;28;20442;-50
2023/06/11 03:49:26;;;;;;;3.83;3.53;;;;;;;18.92;90.07;100119.13;5052334;28;20496;-50
2023/06/11 03:51:52;;;;;;;5.97;5.47;;;;;;;19.01;89.19;100121.19;5052187;28;20457;-50
2023/06/11 03:54:19;;;;;;;3.93;3.63;;;;;;;19.26;88.77;100116.84;5052018;28;20486;-50
2023/06/11 03:56:45;;;;;;;5.40;5.00;;;;;;;19.19;88.80;100128.06;5052429;28;20447;-50
2023/06/11 03:59:12;;;;;;;4.60;4.40;;;;;;;19.27;88.84;100135.63;5052323;28;20538;-50
2023/06/11 04:01:40;;;;;;;5.13;4.00;;;;;;;19.48;88.24;100130.63;5034547;28;20453;-49
2023/06/11 04:04:07;;;;;;;5.03;4.63;;;;;;;19.55;88.46;100139.19;5052068;28;20443;-50
2023/06/11 04:06:40;;;;;;;3.80;3.50;;;;;;;19.66;87.68;100137.47;5052061;28;20457;-49
2023/06/11 04:09:06;;;;;;;3.77;3.57;;;;;;;19.78;87.23;100141.16;5052010;28;20450;-50
2023/06/11 04:11:33;;;;;;;4.40;3.20;;;;;;;19.88;86.97;100136.88;5034382;28;20446;-50
2023/06/11 04:13:59;;;;;;;4.80;3.97;;;;;;;19.85;86.92;100137.06;5052052;28;20581;-50
2023/06/11 04:16:26;;;;;;;4.93;3.80;;;;;;;19.88;86.80;100134.16;5052105;28;20453;-50
2023/06/11 04:18:52;;;;;;;4.10;3.73;;;;;;;20.07;85.70;100147.22;5052042;28;20450;-50
2023/06/11 04:21:19;;;;;;;3.73;3.53;;;;;;;19.92;86.10;100138.38;5051660;28;20497;-50
2023/06/11 04:23:45;;;;;;;6.13;3.57;;;;;;;20.11;85.37;100146.03;5052474;28;20498;-50
2023/06/11 04:26:15;;;;;;;3.70;3.50;;;;;;;20.21;85.00;100147.13;5055984;28;20450;-50
2023/06/11 04:28:45;;;;;;;3.90;3.70;;;;;;;20.54;83.81;100145.69;5056184;28;20447;-50
2023/06/11 04:31:14;;;;;;;4.00;3.50;;;;;;;21.47;81.19;100149.63;5056020;28;20451;-50
2023/06/11 04:33:41;;;;;;;3.47;3.27;;;;;;;21.88;77.32;100155.41;5055789;28;20851;-50
2023/06/11 04:36:08;;;;;;;3.33;3.13;;;;;;;22.25;75.27;100146.31;5055814;28;20527;-50
2023/06/11 04:38:36;;;;;;;4.83;4.50;;;;;;;22.99;72.13;100153.78;5055804;28;20529;-50
2023/06/11 04:41:05;;;;;;;3.80;3.60;;;;;;;23.19;71.23;100151.28;5055815;28;20504;-50
2023/06/11 04:43:36;;;;;;;3.30;3.10;;;;;;;23.38;70.49;100150.59;5055661;28;20471;-50
2023/06/11 04:46:04;;;;;;;3.17;2.93;;;;;;;23.38;69.92;100145.19;5056136;28;20448;-50
2023/06/11 04:48:34;;;;;;;5.97;4.30;;;;;;;23.58;69.61;100136.25;5055665;28;20450;-50
2023/06/11 04:51:01;;;;;;;3.13;2.97;;;;;;;23.39;70.17;100146.91;5056014;28;20537;-49
2023/06/11 04:53:29;;;;;;;4.17;3.87;;;;;;;23.09;71.46;100144.91;5055690;28;20494;-50
2023/06/11 04:55:57;;;;;;;4.27;3.97;;;;;;;23.50;70.43;100149.56;5052143;28;20798;-50
2023/06/11 04:58:29;;;;;;;3.33;3.13;;;;;;;23.10;71.17;100141.19;5048415;28;20553;-50
2023/06/11 05:00:56;;;;;;;4.20;3.90;;;;;;;23.16;71.26;100146.97;5055369;28;20826;-49
2023/06/11 05:03:24;;;;;;;6.20;4.47;;;;;;;23.49;69.80;100143.28;5055462;28;20852;-50
2023/06/11 05:05:51;;;;;;;19.43;3.80;;;;;;;23.12;70.72;100144.66;5055535;28;20446;-50
2023/06/11 05:08:20;;;;;;;3.83;3.63;;;;;;;23.13;71.05;100141.81;5055313;28;20446;-50
2023/06/11 05:10:46;;;;;;;4.00;3.70;;;;;;;23.14;71.26;100142.66;5055359;28;20450;-50
2023/06/11 05:13:13;;;;;;;4.50;4.20;;;;;;;23.39;70.54;100147.75;5055063;28;20585;-50
2023/06/11 05:15:40;;;;;;;3.37;3.17;;;;;;;23.16;70.60;100157.81;5055155;28;20446;-50
2023/06/11 05:18:06;;;;;;;3.30;3.10;;;;;;;23.22;71.39;100156.47;5055375;28;20541;-49
2023/06/11 05:20:33;;;;;;;4.50;4.20;;;;;;;23.15;70.87;100158.81;5055346;28;20464;-49
2023/06/11 05:23:00;;;;;;;3.30;3.13;;;;;;;23.48;69.78;100157.84;5037235;28;20467;-50
2023/06/11 05:25:28;;;;;;;3.43;3.13;;;;;;;23.55;70.13;100169.91;5055095;28;20450;-50
2023/06/11 05:28:01;;;;;;;8.13;4.03;;;;;;;23.81;68.45;100167.72;5055151;28;20538;-50
2023/06/11 05:30:33;;;;;;;7.30;3.10;;;;;;;24.01;67.74;100167.88;5055217;28;20522;-50
2023/06/11 05:33:00;;;;;;;6.23;2.93;;;;;;;23.72;67.97;100165.81;5054857;28;20498;-50
2023/06/11 05:35:27;;;;;;;3.10;3.00;;;;;;;24.02;67.20;100175.03;5053913;28;20823;-50
2023/06/11 05:37:55;;;;;;;3.43;3.10;;;;;;;24.37;65.19;100166.53;5054608;28;20457;-50
2023/06/11 05:40:22;;;;;;;3.40;3.20;;;;;;;24.04;67.06;100176.59;5054756;28;20443;-50
2023/06/11 05:42:48;;;;;;;3.23;2.93;;;;;;;24.89;65.57;100164.59;5054333;28;20502;-50
2023/06/11 05:45:15;;;;;;;5.13;2.80;;;;;;;24.56;65.81;100166.63;5054863;28;20486;-49
2023/06/11 05:47:41;;;;;;;4.20;3.90;;;;;;;24.54;66.52;100174.06;5054540;28;20513;-50
2023/06/11 05:50:09;;;;;;;3.77;3.27;;;;;;;23.98;66.10;100177.13;5054691;28;20531;-50
2023/06/11 05:52:35;;;;;;;3.20;3.10;;;;;;;24.27;65.89;100171.91;5054240;28;21057;-50
2023/06/11 05:55:02;;;;;;;4.90;3.60;;;;;;;24.37;65.66;100178.25;5054504;28;20521;-50
2023/06/11 05:57:28;;;;;;;6.27;2.70;;;;;;;24.04;66.41;100182.03;5054419;28;20447;-50
2023/06/11 05:59:55;;;;;;;4.17;3.87;;;;;;;24.26;65.59;100181.03;5054419;28;20874;-50
2023/06/11 06:02:22;;;;;;;3.53;3.10;;;;;;;23.77;67.14;100189.84;5054106;28;20470;-50
2023/06/11 06:04:49;;;;;;;3.20;3.00;;;;;;;23.50;67.79;100179.44;5054047;28;20442;-50
2023/06/11 06:07:16;;;;;;;3.67;3.47;;;;;;;24.11;66.73;100188.66;5054396;28;20451;-50
2023/06/11 06:09:42;;;;;;;3.30;3.10;;;;;;;23.68;67.46;100186.03;5054282;28;20475;-49
2023/06/11 06:12:10;;;;;;;3.47;3.27;;;;;;;24.27;66.08;100187.34;5054145;28;20470;-49
2023/06/11 06:14:36;;;;;;;3.73;3.30;;;;;;;24.55;64.94;100192.09;5053928;28;20987;-50
2023/06/11 06:17:03;;;;;;;2.90;2.70;;;;;;;24.19;65.59;100196.13;5053941;28;21028;-50
2023/06/11 06:19:29;;;;;;;3.97;3.77;;;;;;;24.38;65.10;100199.00;5054215;28;20447;-50
2023/06/11 06:21:56;;;;;;;5.70;3.30;;;;;;;24.34;65.20;100205.69;5040450;28;20580;-50
2023/06/11 06:24:22;;;;;;;5.70;3.93;;;;;;;24.20;65.74;100195.16;5053713;28;20470;-50
2023/06/11 06:26:56;;;;;;;2.20;2.10;;;;;;;24.52;65.62;100192.34;5049782;28;20454;-49
2023/06/11 06:29:23;;;;;;;2.33;2.23;;;;;;;24.38;64.43;100201.72;5053622;28;20489;-50
2023/06/11 06:31:50;;;;;;;2.70;2.60;;;;;;;24.44;63.73;100198.47;5053990;28;20443;-49
2023/06/11 06:34:16;;;;;;;3.70;3.50;;;;;;;24.13;65.83;100207.56;5053422;28;20494;-50
2023/06/11 06:36:43;;;;;;;3.30;3.10;;;;;;;24.41;64.89;100206.91;5053534;28;20443;-50
2023/06/11 06:39:09;;;;;;;3.00;2.80;;;;;;;24.03;65.96;100210.19;5053569;28;20450;-50
2023/06/11 06:41:36;;;;;;;3.80;3.60;;;;;;;24.23;65.46;100213.88;5053511;28;20508;-50
2023/06/11 06:44:02;;;;;;;3.33;3.13;;;;;;;24.15;64.98;100220.00;5053707;28;20481;-50
2023/06/11 06:46:29;;;;;;;4.10;2.90;;;;;;;24.41;64.76;100211.47;5053271;28;20461;-50
2023/06/11 06:48:55;;;;;;;5.30;4.30;;;;;;;24.48;64.48;100213.50;5053158;28;20476;-50
2023/06/11 06:51:22;;;;;;;3.87;3.53;;;;;;;24.61;64.41;100223.31;5053087;28;20447;-50
2023/06/11 06:53:49;;;;;;;2.73;2.63;;;;;;;24.71;64.02;100226.94;5052995;28;20523;-50
2023/06/11 06:56:17;;;;;;;4.27;3.97;;;;;;;24.77;63.86;100229.97;5053231;28;20534;-50
2023/06/11 06:58:44;;;;;;;3.50;3.30;;;;;;;24.88;63.04;100226.28;5053025;28;20487;-50
2023/06/11 07:01:10;;;;;;;3.17;2.97;;;;;;;24.63;63.57;100222.16;5052972;28;20458;-50
2023/06/11 07:03:37;;;;;;;3.67;3.37;;;;;;;25.30;62.66;100226.16;5052905;28;20471;-49
2023/06/11 07:06:03;;;;;;;6.17;5.00;;;;;;;25.30;62.30;100224.31;5052820;28;20951;-50
2023/06/11 07:08:30;;;;;;;4.43;3.37;;;;;;;25.13;60.71;100227.72;5052607;28;20864;-50
2023/06/11 07:10:57;;;;;;;3.13;2.93;;;;;;;25.40;61.24;100230.66;5052916;28;20458;-50
2023/06/11 07:13:24;;;;;;;2.93;2.80;;;;;;;25.57;60.16;100228.22;5052541;28;20577;-49
2023/06/11 07:15:50;;;;;;;3.43;3.20;;;;;;;25.29;60.72;100224.44;5052897;28;20479;-50
2023/06/11 07:18:17;;;;;;;2.30;2.20;;;;;;;25.47;59.34;100227.34;5052710;28;20497;-50
2023/06/11 07:20:44;;;;;;;7.23;3.40;;;;;;;25.40;59.13;100227.91;5052574;28;20454;-50
2023/06/11 07:23:11;;;;;;;3.20;2.90;;;;;;;25.37;59.50;100227.34;5052632;28;20517;-50
2023/06/11 07:25:37;;;;;;;2.77;2.67;;;;;;;25.17;59.56;100226.41;5053078;28;20768;-49
2023/06/11 07:28:05;;;;;;;3.50;3.30;;;;;;;25.88;58.85;100234.44;5052432;28;20856;-49
2023/06/11 07:30:33;;;;;;;3.27;3.07;;;;;;;25.43;59.65;100243.09;5052526;28;20872;-50
2023/06/11 07:32:59;;;;;;;2.80;2.37;;;;;;;25.38;59.24;100234.50;5052272;28;20469;-50
2023/06/11 07:35:27;;;;;;;3.70;3.50;;;;;;;25.20;60.09;100228.84;5052680;28;20807;-49
2023/06/11 07:37:54;;;;;;;3.33;3.13;;;;;;;25.49;59.30;100233.50;5052424;28;20454;-49
2023/06/11 07:40:21;;;;;;;2.93;2.83;;;;;;;25.58;58.69;100230.81;5052118;28;20767;-49
2023/06/11 07:42:47;;;;;;;4.17;2.90;;;;;;;26.03;57.14;100230.28;5052148;28;20557;-50
2023/06/11 07:45:15;;;;;;;3.53;3.33;;;;;;;25.36;58.48;100240.09;5052415;28;20451;-49
2023/06/11 07:47:41;;;;;;;1.80;1.70;;;;;;;25.59;58.11;100240.69;5052108;28;20497;-49
2023/06/11 07:50:11;;;;;;;3.70;3.50;;;;;;;25.82;58.54;100238.59;5052494;28;20446;-49
2023/06/11 07:52:37;;;;;;;3.10;2.90;;;;;;;26.57;56.37;100242.41;5051950;28;21011;-50
2023/06/11 07:55:05;;;;;;;3.17;2.97;;;;;;;26.43;55.53;100237.44;5052145;28;20536;-50
2023/06/11 07:57:32;;;;;;;4.20;4.00;;;;;;;25.72;57.86;100234.16;5051999;28;20451;-50
2023/06/11 07:59:58;;;;;;;3.10;2.90;;;;;;;26.05;57.04;100239.19;5051535;28;20955;-49
2023/06/11 08:02:25;;;;;;;4.07;3.73;;;;;;;26.20;57.21;100234.16;5051941;28;21026;-50
2023/06/11 08:04:51;;;;;;;6.13;3.43;;;;;;;26.21;55.55;100238.59;5052373;28;20447;-50
2023/06/11 08:07:18;;;;;;;10.40;2.80;;;;;;;25.87;57.04;100235.44;5052034;28;20485;-50
2023/06/11 08:09:44;;;;;;;3.03;2.83;;;;;;;26.88;54.80;100234.00;5051968;28;21021;-50
2023/06/11 08:12:11;;;;;;;3.03;2.77;;;;;;;27.18;52.00;100231.00;5051999;28;20470;-50
2023/06/11 08:14:38;;;;;;;9.03;3.27;;;;;;;26.47;55.13;100234.28;5051920;28;20566;-50
2023/06/11 08:17:04;;;;;;;4.40;4.10;;;;;;;26.88;53.83;100242.19;5051690;28;20454;-50
2023/06/11 08:19:31;;;;;;;3.13;2.93;;;;;;;26.29;53.63;100234.13;5051874;28;20802;-50
2023/06/11 08:22:01;;;;;;;3.60;3.37;;;;;;;26.95;53.37;100235.09;5051783;28;21049;-50
2023/06/11 08:24:27;;;;;;;3.40;3.20;;;;;;;26.82;53.59;100221.81;5051831;28;20442;-50
2023/06/11 08:26:55;;;;;;;3.63;3.43;;;;;;;26.49;53.86;100217.78;5051584;28;20508;-50
2023/06/11 08:29:21;;;;;;;6.10;2.63;;;;;;;26.69;52.85;100224.00;5051516;28;20450;-50
2023/06/11 08:31:48;;;;;;;2.53;2.33;;;;;;;26.98;52.48;100213.81;5051886;28;20469;-50
2023/06/11 08:34:14;;;;;;;3.07;2.87;;;;;;;26.43;52.61;100221.94;5051708;28;20518;-50
2023/06/11 08:36:41;;;;;;;2.80;2.60;;;;;;;26.65;51.62;100222.59;5051837;28;20541;-50
2023/06/11 08:39:08;;;;;;;5.67;2.90;;;;;;;26.77;52.17;100229.59;5051475;28;20489;-50
2023/06/11 08:41:36;;;;;;;3.37;3.17;;;;;;;27.10;51.92;100217.25;5052042;28;20455;-50
2023/06/11 08:44:02;;;;;;;3.20;3.00;;;;;;;27.61;49.68;100216.66;5051363;28;20548;-50
2023/06/11 08:46:34;;;;;;;3.33;3.13;;;;;;;27.78;48.80;100222.31;5051835;28;20817;-49
2023/06/11 08:49:06;;;;;;;2.47;2.37;;;;;;;26.95;49.73;100224.19;5052029;28;20474;-50
2023/06/11 08:51:37;;;;;;;3.50;3.30;;;;;;;27.53;48.07;100211.09;5051596;28;20943;-50
2023/06/11 08:54:06;;;;;;;2.53;2.33;;;;;;;27.79;46.89;100221.28;5051277;28;20836;-50
2023/06/11 08:56:33;;;;;;;6.30;3.07;;;;;;;27.84;46.33;100213.50;5051194;28;20479;-50
2023/06/11 08:59:00;;;;;;;2.63;2.53;;;;;;;27.82;46.85;100208.16;5051538;28;20493;-51
2023/06/11 09:01:28;;;;;;;3.57;3.27;;;;;;;28.07;47.61;100208.38;5049422;28;20950;-50
2023/06/11 09:03:54;;;;;;;3.03;2.83;;;;;;;27.60;48.08;100212.19;5045009;28;20588;-50
2023/06/11 09:06:21;;;;;;;2.30;2.20;;;;;;;27.50;46.24;100221.47;5051489;28;20447;-50
2023/06/11 09:09:01;;;;;;;7.43;3.00;;;;;;;27.08;47.11;100225.59;5051286;28;20422;-50
2023/06/11 09:11:32;;;;;;;2.70;2.60;;;;;;;27.17;48.32;100209.34;5054910;28;20425;-50
2023/06/11 09:13:59;;;;;;;2.30;2.20;;;;;;;27.60;47.68;100209.47;5054778;28;20987;-49
2023/06/11 09:16:25;;;;;;;5.70;3.37;;;;;;;28.15;47.37;100203.84;5055148;28;20429;-50
2023/06/11 09:18:54;;;;;;;4.87;2.60;;;;;;;28.63;45.73;100210.69;5054741;28;20446;-50
2023/06/11 09:21:23;;;;;;;4.30;3.90;;;;;;;27.61;46.04;100200.25;5054759;28;20631;-51
2023/06/11 09:23:49;;;;;;;3.30;3.00;;;;;;;28.17;45.13;100204.53;5054970;28;20489;-50
2023/06/11 09:26:17;;;;;;;4.13;3.77;;;;;;;27.65;45.94;100209.03;5054729;28;20450;-50
2023/06/11 09:28:46;;;;;;;2.63;2.53;;;;;;;27.88;46.44;100210.28;5054950;28;20473;-50
2023/06/11 09:31:18;;;;;;;2.60;2.43;;;;;;;28.14;45.99;100207.59;5054853;28;20512;-50
2023/06/11 09:33:45;;;;;;;3.70;3.47;;;;;;;27.77;46.05;100207.78;5054383;28;20521;-50
2023/06/11 09:36:11;;;;;;;5.30;2.20;;;;;;;28.25;44.66;100207.34;5054450;28;20467;-50
2023/06/11 09:38:38;;;;;;;3.10;2.80;;;;;;;28.28;42.87;100201.59;5054698;28;20478;-50
2023/06/11 09:41:08;;;;;;;3.43;2.90;;;;;;;28.61;42.28;100202.66;5054496;28;20453;-50
2023/06/11 09:43:34;;;;;;;2.00;1.90;;;;;;;29.00;41.70;100198.59;5054420;28;20559;-50
2023/06/11 09:46:02;;;;;;;6.30;3.40;;;;;;;29.33;41.25;100202.28;5054476;28;20513;-50
2023/06/11 09:48:29;;;;;;;2.70;2.50;;;;;;;29.43;41.44;100208.50;5054200;28;20422;-50
2023/06/11 09:50:56;;;;;;;2.53;2.33;;;;;;;29.04;42.55;100199.97;5054416;28;20426;-50
2023/06/11 09:53:23;;;;;;;2.47;2.37;;;;;;;29.68;40.56;100202.06;5054503;28;20529;-50
2023/06/11 09:55:50;;;;;;;2.70;2.50;;;;;;;29.70;39.30;100201.91;5054130;28;20496;-50
2023/06/11 09:58:36;;;;;;;2.30;2.20;;;;;;;29.89;38.29;100195.25;5054151;28;20417;-50
2023/06/11 10:01:03;;;;;;;2.60;2.40;;;;;;;28.67;40.03;100201.16;5054147;28;20451;-50
2023/06/11 10:03:33;;;;;;;2.53;2.43;;;;;;;28.65;40.28;100205.09;5054125;28;20449;-49
2023/06/11 10:06:04;;;;;;;3.17;2.97;;;;;;;28.90;40.19;100194.09;5054022;28;20462;-50
2023/06/11 10:08:34;;;;;;;3.53;3.23;;;;;;;28.69;39.48;100196.38;5054074;28;20443;-50
2023/06/11 10:11:02;;;;;;;2.87;2.70;;;;;;;28.50;41.24;100189.25;5054032;28;20465;-50
2023/06/11 10:13:30;;;;;;;2.60;2.50;;;;;;;29.11;41.45;100192.84;5053697;28;20442;-50
2023/06/11 10:16:06;;;;;;;3.97;2.43;;;;;;;29.14;40.89;100193.34;5053897;28;21066;-50
2023/06/11 10:18:33;;;;;;;3.07;2.77;;;;;;;29.23;40.81;100185.19;5053801;28;20889;-50
2023/06/11 10:21:02;;;;;;;2.87;2.67;;;;;;;29.24;39.83;100195.97;5053883;28;20474;-50
2023/06/11 10:23:41;;;;;;;2.50;2.03;;;;;;;29.16;39.90;100199.50;5053160;28;21008;-50
2023/06/11 10:26:12;;;;;;;2.83;2.40;;;;;;;28.28;39.64;100206.19;5053710;28;20453;-50
2023/06/11 10:28:43;;;;;;;2.50;2.40;;;;;;;28.24;40.65;100199.31;5054013;28;20418;-50
2023/06/11 10:31:10;;;;;;;2.43;2.30;;;;;;;28.49;38.50;100200.34;5053765;28;20425;-50
2023/06/11 10:33:42;;;;;;;12.17;2.53;;;;;;;28.70;37.74;100197.22;5053595;28;21105;-50
2023/06/11 10:36:09;;;;;;;18.43;3.13;;;;;;;28.93;36.40;100198.41;5053476;28;20472;-50
2023/06/11 10:38:39;;;;;;;1.87;1.77;;;;;;;29.45;36.09;100196.34;5053440;28;20426;-49
2023/06/11 10:41:06;;;;;;;15.43;2.90;;;;;;;29.23;36.99;100194.25;5053867;28;20413;-50
2023/06/11 10:43:35;;;;;;;3.03;2.87;;;;;;;29.87;36.21;100180.84;5053474;28;20449;-50
2023/06/11 10:46:03;;;;;;;2.10;2.00;;;;;;;30.12;35.27;100177.09;5053319;28;20422;-50
2023/06/11 10:48:30;;;;;;;2.23;2.03;;;;;;;29.58;37.08;100184.06;5053520;28;20432;-50
2023/06/11 10:51:05;;;;;;;2.80;2.60;;;;;;;29.27;36.34;100184.66;5053151;28;20451;-49
2023/06/11 10:53:37;;;;;;;3.43;3.23;;;;;;;29.11;37.49;100188.22;5053408;28;20440;-50
2023/06/11 10:56:03;;;;;;;1.80;1.70;;;;;;;29.12;34.41;100189.06;5035456;28;20967;-50
2023/06/11 10:58:31;;;;;;;2.33;2.23;;;;;;;29.54;33.89;100178.09;5046548;28;20816;-51
2023/06/11 11:00:58;;;;;;;2.30;2.20;;;;;;;29.37;34.88;100184.53;5040191;28;20447;-50
2023/06/11 11:03:29;;;;;;;3.20;2.70;;;;;;;29.03;33.17;100192.78;5052858;28;20473;-50
2023/06/11 11:05:57;;;;;;;4.37;2.70;;;;;;;29.28;34.22;100188.25;5053329;28;20414;-50
2023/06/11 11:08:23;;;;;;;10.33;3.10;;;;;;;29.27;34.39;100179.19;5053134;28;20864;-50
2023/06/11 11:11:02;;;;;;;2.97;2.77;;;;;;;29.65;34.14;100175.03;5053114;28;20912;-50
2023/06/11 11:13:29;;;;;;;2.33;2.10;;;;;;;29.39;34.97;100179.72;5052868;28;20467;-50
2023/06/11 11:15:56;;;;;;;2.20;2.00;;;;;;;29.57;36.52;100171.41;5052721;28;20985;-49
2023/06/11 11:18:22;;;;;;;20.00;2.97;;;;;;;28.83;35.57;100186.69;5052949;28;20450;-50
2023/06/11 11:20:51;;;;;;;2.37;2.23;;;;;;;29.03;36.27;100181.84;5053203;28;20457;-49
2023/06/11 11:23:18;;;;;;;2.90;2.60;;;;;;;29.31;36.39;100183.28;5052655;28;20452;-50
2023/06/11 11:25:44;;;;;;;3.37;3.10;;;;;;;29.53;35.77;100176.38;5052540;28;20478;-50
2023/06/11 11:28:13;;;;;;;2.40;2.30;;;;;;;29.54;35.06;100182.72;5052633;28;20813;-49